createdAt,value
2018-11-11T00:00:25.460Z,49.13
2018-11-11T00:02:55.446Z,48.48
2018-11-11T00:05:24.992Z,50.27
2018-11-11T00:07:54.472Z,48.40
2018-11-11T00:10:23.896Z,49.10
2018-11-11T00:12:53.400Z,47.73
2018-11-11T00:15:22.744Z,48.33
2018-11-11T00:17:52.292Z,48.52
2018-11-11T00:20:21.748Z,49.17
2018-11-11T00:22:51.103Z,48.60
2018-11-11T00:25:20.663Z,49.40
2018-11-11T00:27:50.362Z,50.55
2018-11-11T00:30:20.267Z,52.27
2018-11-11T00:32:49.724Z,50.50
2018-11-11T00:35:19.263Z,49.43
2018-11-11T00:37:48.704Z,49.88
2018-11-11T00:40:18.229Z,48.90
2018-11-11T00:42:47.779Z,51.30
2018-11-11T00:45:17.199Z,47.23
2018-11-11T00:47:47.041Z,49.00
2018-11-11T00:50:16.579Z,48.60
2018-11-11T00:52:46.003Z,47.80
2018-11-11T00:55:16.615Z,50.40
2018-11-11T00:57:46.412Z,50.83
2018-11-11T01:00:17.339Z,49.57
2018-11-11T01:02:47.165Z,54.30
2018-11-11T01:05:16.738Z,53.53
2018-11-11T01:07:46.175Z,52.40
2018-11-11T01:10:16.815Z,51.33
2018-11-11T01:12:46.636Z,52.03
2018-11-11T01:15:17.062Z,50.43
2018-11-11T01:17:46.672Z,50.80
2018-11-11T01:20:18.572Z,50.80
2018-11-11T01:22:47.991Z,47.03
2018-11-11T01:25:18.087Z,48.60
2018-11-11T01:27:47.533Z,49.70
2018-11-11T01:30:16.966Z,51.23
2018-11-11T01:32:46.520Z,48.60
2018-11-11T01:35:17.119Z,49.87
2018-11-11T01:37:46.691Z,49.47
2018-11-11T01:40:16.158Z,50.07
2018-11-11T01:42:45.590Z,47.50
2018-11-11T01:45:16.899Z,50.83
2018-11-11T01:47:47.027Z,50.98
2018-11-11T01:50:17.147Z,50.63
2018-11-11T01:52:46.625Z,50.60
2018-11-11T01:55:16.104Z,51.47
2018-11-11T01:57:45.666Z,49.57
2018-11-11T02:00:16.599Z,51.47
2018-11-11T02:02:47.159Z,50.90
2018-11-11T02:05:16.814Z,51.30
2018-11-11T02:07:47.030Z,52.50
2018-11-11T02:10:16.436Z,52.70
2018-11-11T02:12:46.485Z,53.38
2018-11-11T02:15:16.950Z,54.90
2018-11-11T02:17:46.652Z,50.73
2018-11-11T02:20:18.811Z,53.80
2018-11-11T02:22:49.603Z,53.30
2018-11-11T02:25:18.974Z,56.03
2018-11-11T02:27:48.498Z,54.13
2018-11-11T02:30:21.103Z,55.27
2018-11-11T02:32:50.485Z,54.17
2018-11-11T02:35:20.082Z,56.13
2018-11-11T02:37:49.463Z,60.17
2018-11-11T02:40:20.875Z,58.50
2018-11-11T02:42:50.513Z,61.57
2018-11-11T02:45:20.555Z,57.48
2018-11-11T02:47:49.957Z,59.23
2018-11-11T02:50:20.016Z,60.80
2018-11-11T02:52:49.411Z,60.20
2018-11-11T02:55:18.966Z,59.77
2018-11-11T02:57:48.707Z,60.92
2018-11-11T03:00:19.518Z,62.83
2018-11-11T03:02:49.390Z,59.98
2018-11-11T03:05:19.424Z,61.30
2018-11-11T03:07:48.819Z,62.33
2018-11-11T03:10:18.751Z,61.27
2018-11-11T03:12:49.187Z,65.35
2018-11-11T03:15:19.080Z,65.10
2018-11-11T03:17:48.458Z,63.23
2018-11-11T03:20:18.120Z,67.23
2018-11-11T03:22:47.524Z,69.67
2018-11-11T03:25:17.670Z,70.23
2018-11-11T03:27:47.078Z,70.07
2018-11-11T03:30:17.483Z,69.80
2018-11-11T03:32:46.993Z,67.33
2018-11-11T03:35:16.435Z,70.33
2018-11-11T03:37:46.594Z,72.00
2018-11-11T03:40:17.801Z,73.07
2018-11-11T03:42:47.714Z,71.13
2018-11-11T03:45:18.557Z,73.83
2018-11-11T03:47:49.147Z,70.40
2018-11-11T03:50:18.794Z,73.97
2018-11-11T03:52:48.298Z,71.20
2018-11-11T03:55:17.807Z,71.90
2018-11-11T03:57:47.391Z,79.47
2018-11-11T04:00:17.393Z,76.23
2018-11-11T04:02:46.814Z,75.20
2018-11-11T04:05:17.763Z,74.53
2018-11-11T04:07:47.331Z,75.75
2018-11-11T04:10:18.104Z,75.57
2018-11-11T04:12:48.395Z,77.00
2018-11-11T04:15:19.123Z,78.43
2018-11-11T04:17:48.827Z,79.75
2018-11-11T04:20:19.458Z,79.90
2018-11-11T04:22:48.886Z,77.15
2018-11-11T04:25:19.051Z,80.03
2018-11-11T04:27:48.419Z,80.77
2018-11-11T04:30:18.173Z,80.63
2018-11-11T04:32:47.747Z,76.07
2018-11-11T04:35:17.139Z,79.57
2018-11-11T04:37:46.687Z,69.57
2018-11-11T04:40:16.488Z,79.37
2018-11-11T04:42:46.025Z,82.02
2018-11-11T04:45:16.379Z,75.10
2018-11-11T04:47:46.474Z,77.45
2018-11-11T04:50:17.238Z,76.50
2018-11-11T04:52:47.465Z,77.35
2018-11-11T04:55:17.045Z,83.83
2018-11-11T04:57:46.536Z,82.02
2018-11-11T05:00:16.099Z,78.70
2018-11-11T05:02:45.492Z,80.77
2018-11-11T05:05:15.295Z,78.20
2018-11-11T05:07:44.667Z,78.40
2018-11-11T05:10:14.258Z,80.37
2018-11-11T05:12:43.607Z,81.73
2018-11-11T05:15:13.895Z,80.17
2018-11-11T05:17:43.636Z,79.20
2018-11-11T05:20:13.596Z,80.57
2018-11-11T05:22:43.399Z,83.27
2018-11-11T05:25:13.879Z,81.60
2018-11-11T05:27:44.060Z,76.20
2018-11-11T05:30:14.129Z,80.30
2018-11-11T05:32:43.688Z,80.77
2018-11-11T05:35:13.570Z,81.43
2018-11-11T05:37:43.423Z,81.67
2018-11-11T05:40:13.478Z,79.50
2018-11-11T05:42:43.787Z,82.20
2018-11-11T05:45:14.596Z,80.30
2018-11-11T05:47:44.760Z,75.90
2018-11-11T05:50:15.295Z,76.87
2018-11-11T05:52:45.665Z,76.02
2018-11-11T05:55:15.158Z,77.97
2018-11-11T05:57:44.571Z,80.35
2018-11-11T06:00:18.919Z,77.13
2018-11-11T06:02:48.496Z,80.53
2018-11-11T06:05:18.103Z,83.27
2018-11-11T06:07:47.498Z,86.60
2018-11-11T06:10:16.882Z,87.13
2018-11-11T06:12:46.333Z,86.77
2018-11-11T06:15:15.894Z,88.10
2018-11-11T06:17:45.446Z,93.00
2018-11-11T06:20:16.907Z,81.23
2018-11-11T06:22:46.370Z,83.67
2018-11-11T06:25:15.866Z,84.97
2018-11-11T06:27:45.447Z,82.10
2018-11-11T06:30:14.848Z,88.83
2018-11-11T06:32:44.229Z,90.53
2018-11-11T06:35:13.700Z,92.60
2018-11-11T06:37:43.168Z,85.93
2018-11-11T06:40:14.084Z,84.03
2018-11-11T06:42:43.644Z,87.83
2018-11-11T06:45:15.198Z,84.40
2018-11-11T06:47:45.271Z,83.92
2018-11-11T06:50:15.535Z,85.40
2018-11-11T06:52:45.434Z,87.50
2018-11-11T06:55:14.956Z,87.33
2018-11-11T06:57:44.342Z,88.47
2018-11-11T07:00:15.040Z,84.17
2018-11-11T07:02:55.653Z,79.23
2018-11-11T07:05:25.075Z,84.73
2018-11-11T07:07:54.704Z,86.50
2018-11-11T07:10:24.122Z,89.00
2018-11-11T07:12:53.743Z,77.73
2018-11-11T07:15:23.312Z,81.27
2018-11-11T07:17:52.744Z,84.03
2018-11-11T07:20:22.295Z,86.93
2018-11-11T07:22:51.967Z,77.20
2018-11-11T07:25:21.596Z,80.53
2018-11-11T07:27:51.005Z,79.13
2018-11-11T07:30:20.473Z,84.67
2018-11-11T07:32:49.903Z,78.65
2018-11-11T07:35:19.348Z,75.83
2018-11-11T07:37:48.692Z,81.08
2018-11-11T07:40:18.232Z,80.67
2018-11-11T07:42:47.679Z,79.43
2018-11-11T07:45:17.171Z,79.17
2018-11-11T07:47:46.779Z,77.72
2018-11-11T07:50:16.410Z,79.03
2018-11-11T07:52:45.798Z,76.00
2018-11-11T07:55:15.418Z,82.00
2018-11-11T07:57:44.874Z,85.40
2018-11-11T08:00:14.974Z,75.77
2018-11-11T08:02:44.455Z,81.03
2018-11-11T08:05:14.107Z,80.93
2018-11-11T08:07:43.500Z,75.30
2018-11-11T08:10:24.181Z,80.27
2018-11-11T08:12:53.671Z,79.25
2018-11-11T08:15:23.183Z,84.57
2018-11-11T08:17:52.642Z,82.80
2018-11-11T08:20:22.379Z,82.60
2018-11-11T08:22:52.104Z,84.45
2018-11-11T08:25:21.761Z,82.30
2018-11-11T08:27:51.220Z,83.12
2018-11-11T08:30:20.640Z,81.90
2018-11-11T08:32:50.297Z,87.57
2018-11-11T08:35:19.876Z,85.13
2018-11-11T08:37:49.541Z,82.43
2018-11-11T08:40:19.073Z,87.67
2018-11-11T08:42:48.626Z,91.70
2018-11-11T08:45:18.063Z,79.83
2018-11-11T08:47:47.638Z,83.03
2018-11-11T08:50:17.059Z,85.53
2018-11-11T08:52:46.565Z,82.20
2018-11-11T08:55:15.972Z,85.57
2018-11-11T08:57:45.417Z,81.47
2018-11-11T09:00:15.695Z,76.00
2018-11-11T09:02:45.369Z,73.75
2018-11-11T09:05:14.859Z,77.43
2018-11-11T09:07:44.290Z,82.97
2018-11-11T09:10:13.860Z,82.33
2018-11-11T09:12:43.321Z,82.73
2018-11-11T09:15:14.015Z,75.70
2018-11-11T09:17:43.897Z,81.83
2018-11-11T09:20:14.774Z,82.33
2018-11-11T09:22:44.258Z,86.83
2018-11-11T09:25:13.919Z,93.43
2018-11-11T09:27:43.618Z,95.47
2018-11-11T09:30:14.427Z,85.53
2018-11-11T09:32:43.976Z,86.33
2018-11-11T09:35:13.580Z,88.20
2018-11-11T09:37:43.034Z,90.33
2018-11-11T09:40:13.427Z,90.90
2018-11-11T09:42:43.521Z,91.10
2018-11-11T09:45:15.316Z,94.47
2018-11-11T09:47:45.412Z,89.17
2018-11-11T09:50:16.227Z,91.07
2018-11-11T09:52:45.882Z,86.60
2018-11-11T09:55:15.492Z,85.73
2018-11-11T09:57:45.083Z,85.80
2018-11-11T10:00:21.073Z,83.40
2018-11-11T10:04:57.303Z,82.92
2018-11-11T10:07:36.764Z,79.77
2018-11-11T10:11:17.769Z,81.17
2018-11-11T10:14:55.512Z,76.97
2018-11-11T10:17:36.230Z,77.67
2018-11-11T10:20:11.557Z,82.83
2018-11-11T10:22:49.043Z,81.07
2018-11-11T10:25:23.231Z,74.97
2018-11-11T10:27:56.682Z,76.67
2018-11-11T10:30:34.562Z,78.50
2018-11-11T10:35:26.255Z,85.77
2018-11-11T10:38:15.519Z,74.95
2018-11-11T10:40:48.788Z,77.40
2018-11-11T10:43:23.499Z,81.23
2018-11-11T10:45:57.191Z,77.10
2018-11-11T10:48:34.055Z,75.73
2018-11-11T10:51:04.906Z,79.03
2018-11-11T10:53:34.670Z,76.70
2018-11-11T10:56:04.391Z,76.03
2018-11-11T10:58:34.079Z,71.47
2018-11-11T11:01:08.593Z,78.22
2018-11-11T11:03:41.496Z,76.70
2018-11-11T11:06:11.214Z,77.37
2018-11-11T11:08:46.530Z,77.62
2018-11-11T11:11:16.087Z,79.83
2018-11-11T11:13:45.812Z,80.50
2018-11-11T11:16:15.387Z,82.90
2018-11-11T11:18:44.952Z,87.57
2018-11-11T11:21:14.624Z,84.17
2018-11-11T11:23:44.033Z,86.50
2018-11-11T11:26:13.532Z,79.07
2018-11-11T11:28:43.323Z,78.83
2018-11-11T11:31:12.847Z,74.63
2018-11-11T11:33:42.367Z,72.53
2018-11-11T11:36:12.301Z,68.17
2018-11-11T11:38:41.707Z,76.53
2018-11-11T11:41:11.360Z,71.77
2018-11-11T11:43:41.528Z,78.80
2018-11-11T11:46:11.123Z,72.80
2018-11-11T11:48:41.569Z,73.17
2018-11-11T11:51:11.191Z,74.37
2018-11-11T11:53:41.700Z,71.77
2018-11-11T11:56:11.264Z,68.67
2018-11-11T11:58:41.715Z,67.30
2018-11-11T12:01:11.324Z,69.37
2018-11-11T12:03:41.952Z,70.50
2018-11-11T12:06:11.483Z,70.17
2018-11-11T12:08:42.086Z,70.87
2018-11-11T12:11:11.732Z,68.77
2018-11-11T12:13:42.311Z,73.90
2018-11-11T12:16:11.790Z,71.47
2018-11-11T12:18:41.639Z,70.97
2018-11-11T12:21:11.360Z,70.20
2018-11-11T12:23:41.688Z,73.97
2018-11-11T12:26:11.320Z,75.37
2018-11-11T12:28:41.771Z,70.40
2018-11-11T12:31:11.373Z,68.87
2018-11-11T12:33:41.641Z,72.13
2018-11-11T12:36:11.331Z,70.30
2018-11-11T12:38:41.633Z,67.15
2018-11-11T12:41:11.088Z,71.77
2018-11-11T12:43:41.447Z,72.63
2018-11-11T12:46:10.924Z,71.07
2018-11-11T12:48:40.348Z,68.77
2018-11-11T12:51:09.911Z,67.90
2018-11-11T12:53:39.328Z,65.87
2018-11-11T12:56:09.779Z,67.10
2018-11-11T12:58:39.351Z,65.83
2018-11-11T13:01:08.969Z,65.83
2018-11-11T13:03:38.597Z,65.60
2018-11-11T13:06:08.071Z,65.07
2018-11-11T13:08:37.691Z,63.73
2018-11-11T13:11:07.320Z,64.63
2018-11-11T13:13:36.870Z,60.70
2018-11-11T13:16:07.779Z,63.70
2018-11-11T13:18:37.296Z,68.50
2018-11-11T13:21:06.869Z,65.97
2018-11-11T13:23:36.352Z,71.53
2018-11-11T13:26:06.251Z,69.95
2018-11-11T13:28:35.707Z,68.73
2018-11-11T13:31:05.847Z,71.77
2018-11-11T13:33:35.475Z,69.27
2018-11-11T13:36:05.152Z,64.50
2018-11-11T13:38:35.006Z,62.97
2018-11-11T13:41:05.064Z,58.77
2018-11-11T13:43:34.702Z,58.70
2018-11-11T13:46:04.465Z,58.50
2018-11-11T13:48:34.015Z,57.10
2018-11-11T13:51:03.675Z,56.17
2018-11-11T13:53:33.253Z,58.57
2018-11-11T13:56:02.755Z,59.80
2018-11-11T13:58:32.370Z,57.77
2018-11-11T14:01:02.173Z,55.13
2018-11-11T14:03:31.705Z,56.23
2018-11-11T14:06:01.162Z,53.77
2018-11-11T14:08:30.856Z,56.20
2018-11-11T14:11:00.609Z,54.00
2018-11-11T14:13:30.010Z,55.17
2018-11-11T14:15:59.599Z,56.13
2018-11-11T14:18:29.206Z,59.90
2018-11-11T14:20:59.122Z,58.40
2018-11-11T14:23:28.556Z,60.60
2018-11-11T14:25:58.239Z,60.03
2018-11-11T14:28:27.635Z,60.00
2018-11-11T14:30:57.145Z,64.77
2018-11-11T14:33:26.599Z,64.00
2018-11-11T14:35:56.067Z,60.20
2018-11-11T14:38:25.713Z,62.40
2018-11-11T14:40:55.204Z,56.43
2018-11-11T14:43:24.691Z,57.07
2018-11-11T14:45:54.307Z,54.73
2018-11-11T14:48:23.733Z,47.57
2018-11-11T14:50:53.442Z,51.07
2018-11-11T14:53:22.991Z,50.20
2018-11-11T14:55:52.470Z,45.37
2018-11-11T14:58:22.242Z,44.77
2018-11-11T15:00:51.892Z,46.35
2018-11-11T15:03:21.628Z,46.47
2018-11-11T15:05:51.225Z,40.92
2018-11-11T15:08:20.741Z,43.80
2018-11-11T15:10:50.209Z,42.23
2018-11-11T15:13:19.722Z,42.17
2018-11-11T15:15:50.554Z,40.90
2018-11-11T15:18:21.829Z,41.87
2018-11-11T15:20:51.561Z,43.90
2018-11-11T15:23:20.971Z,44.00
2018-11-11T15:25:50.407Z,41.83
2018-11-11T15:28:19.839Z,41.47
2018-11-11T15:30:49.500Z,36.90
2018-11-11T15:33:18.961Z,35.23
2018-11-11T15:35:48.481Z,33.43
2018-11-11T15:38:17.970Z,33.70
2018-11-11T15:40:47.411Z,33.63
2018-11-11T15:43:16.952Z,31.37
2018-11-11T15:45:46.543Z,29.00
2018-11-11T15:48:15.967Z,29.90
2018-11-11T15:50:45.786Z,28.47
2018-11-11T15:53:15.265Z,29.97
2018-11-11T15:55:44.644Z,30.30
2018-11-11T15:58:14.115Z,28.30
2018-11-11T16:00:43.851Z,30.93
2018-11-11T16:03:13.281Z,30.07
2018-11-11T16:05:42.695Z,30.40
2018-11-11T16:08:12.160Z,32.95
2018-11-11T16:10:42.171Z,32.63
2018-11-11T16:13:11.825Z,34.87
2018-11-11T16:15:42.935Z,34.63
2018-11-11T16:18:13.880Z,34.13
2018-11-11T16:20:43.685Z,35.67
2018-11-11T16:23:13.383Z,35.48
2018-11-11T16:25:43.077Z,36.77
2018-11-11T16:28:12.618Z,36.87
2018-11-11T16:30:42.474Z,37.03
2018-11-11T16:33:12.206Z,38.50
2018-11-11T16:35:42.428Z,36.07
2018-11-11T16:38:12.019Z,35.33
2018-11-11T16:40:42.502Z,37.78
2018-11-11T16:43:12.089Z,35.90
2018-11-11T16:45:42.390Z,35.80
2018-11-11T16:48:11.945Z,36.20
2018-11-11T16:50:42.671Z,35.93
2018-11-11T16:53:12.562Z,37.23
2018-11-11T16:55:42.446Z,37.47
2018-11-11T16:58:12.496Z,38.17
2018-11-11T17:00:42.515Z,37.87
2018-11-11T17:03:12.182Z,38.63
2018-11-11T17:05:42.899Z,39.27
2018-11-11T17:08:12.458Z,38.63
2018-11-11T17:10:42.530Z,40.57
2018-11-11T17:13:13.513Z,41.33
2018-11-11T17:15:43.096Z,42.10
2018-11-11T17:18:12.713Z,40.63
2018-11-11T17:20:42.696Z,41.65
2018-11-11T17:23:12.314Z,41.60
2018-11-11T17:25:42.476Z,40.77
2018-11-11T17:28:12.309Z,41.77
2018-11-11T17:30:42.794Z,44.40
2018-11-11T17:33:12.532Z,43.20
2018-11-11T17:35:43.292Z,44.47
2018-11-11T17:38:13.353Z,45.10
2018-11-11T17:40:43.205Z,44.10
2018-11-11T17:43:12.876Z,43.47
2018-11-11T17:45:42.701Z,44.63
2018-11-11T17:48:12.587Z,43.87
2018-11-11T17:50:42.922Z,43.15
2018-11-11T17:53:12.661Z,40.70
2018-11-11T17:55:42.916Z,41.93
2018-11-11T17:58:12.269Z,44.37
2018-11-11T18:00:42.750Z,42.73
2018-11-11T18:03:12.321Z,42.67
2018-11-11T18:05:42.781Z,40.27
2018-11-11T18:08:12.391Z,40.87
2018-11-11T18:10:42.804Z,40.17
2018-11-11T18:13:12.310Z,39.67
2018-11-11T18:15:42.739Z,40.43
2018-11-11T18:18:12.410Z,40.53
2018-11-11T18:20:42.777Z,36.07
2018-11-11T18:23:12.589Z,40.27
2018-11-11T18:25:42.768Z,39.67
2018-11-11T18:28:12.512Z,39.70
2018-11-11T18:30:43.089Z,37.38
2018-11-11T18:33:12.780Z,38.37
2018-11-11T18:35:43.070Z,39.30
2018-11-11T18:38:12.691Z,39.60
2018-11-11T18:40:42.749Z,39.10
2018-11-11T18:43:12.281Z,36.67
2018-11-11T18:45:43.346Z,39.57
2018-11-11T18:48:12.861Z,42.47
2018-11-11T18:50:42.743Z,43.27
2018-11-11T18:53:12.448Z,44.63
2018-11-11T18:55:43.089Z,44.85
2018-11-11T18:58:12.726Z,48.00
2018-11-11T19:00:42.805Z,49.00
2018-11-11T19:03:12.468Z,50.53
2018-11-11T19:05:42.862Z,48.07
2018-11-11T19:08:12.953Z,49.67
2018-11-11T19:10:42.913Z,51.17
2018-11-11T19:13:12.490Z,49.87
2018-11-11T19:15:43.179Z,50.47
2018-11-11T19:18:12.835Z,48.53
2018-11-11T19:20:43.721Z,46.53
2018-11-11T19:23:15.387Z,46.87
2018-11-11T19:25:49.493Z,46.40
2018-11-11T19:28:20.330Z,47.27
2018-11-11T19:30:50.040Z,43.85
2018-11-11T19:33:19.854Z,44.80
2018-11-11T19:35:49.647Z,45.63
2018-11-11T19:38:19.427Z,41.93
2018-11-11T19:40:48.991Z,43.20
2018-11-11T19:43:18.647Z,40.07
2018-11-11T19:45:48.569Z,41.18
2018-11-11T19:48:18.709Z,35.50
2018-11-11T19:50:48.532Z,38.80
2018-11-11T19:53:18.662Z,39.17
2018-11-11T19:55:48.297Z,37.93
2018-11-11T19:58:18.190Z,40.60
2018-11-11T20:00:48.411Z,36.70
2018-11-11T20:03:18.141Z,42.30
2018-11-11T20:05:48.680Z,43.43
2018-11-11T20:08:19.250Z,40.07
2018-11-11T20:10:48.843Z,41.05
2018-11-11T20:13:19.034Z,44.93
2018-11-11T20:15:48.774Z,42.62
2018-11-11T20:18:19.867Z,42.77
2018-11-11T20:20:49.735Z,41.97
2018-11-11T20:23:19.637Z,41.60
2018-11-11T20:25:49.694Z,42.33
2018-11-11T20:28:19.542Z,42.23
2018-11-11T20:30:49.351Z,40.67
2018-11-11T20:33:19.213Z,40.73
2018-11-11T20:35:49.365Z,39.23
2018-11-11T20:38:19.005Z,43.47
2018-11-11T20:40:48.651Z,43.65
2018-11-11T20:43:21.495Z,46.90
2018-11-11T20:45:53.628Z,45.80
2018-11-11T20:48:23.147Z,44.43
2018-11-11T20:50:53.025Z,42.67
2018-11-11T20:53:22.728Z,40.63
2018-11-11T20:55:52.579Z,40.20
2018-11-11T20:58:22.188Z,41.60
2018-11-11T21:00:53.564Z,40.13
2018-11-11T21:03:23.353Z,40.83
2018-11-11T21:05:53.030Z,44.05
2018-11-11T21:08:22.790Z,41.77
2018-11-11T21:10:52.495Z,47.30
2018-11-11T21:13:22.052Z,44.57
2018-11-11T21:15:52.600Z,42.08
2018-11-11T21:18:22.345Z,45.40
2018-11-11T21:20:52.099Z,46.05
2018-11-11T21:23:21.673Z,43.23
2018-11-11T21:25:51.182Z,46.30
2018-11-11T21:28:20.713Z,42.77
2018-11-11T21:30:50.353Z,44.48
2018-11-11T21:33:19.877Z,41.60
2018-11-11T21:35:49.589Z,45.30
2018-11-11T21:38:19.430Z,44.73
2018-11-11T21:40:49.049Z,45.30
2018-11-11T21:43:18.645Z,45.07
2018-11-11T21:45:48.358Z,49.13
2018-11-11T21:48:17.882Z,44.23
2018-11-11T21:50:47.379Z,44.10
2018-11-11T21:53:36.184Z,43.70
2018-11-11T21:56:06.158Z,39.27
2018-11-11T21:58:35.957Z,43.53
2018-11-11T22:01:06.012Z,47.50
2018-11-11T22:03:35.698Z,43.43
2018-11-11T22:06:06.688Z,45.37
2018-11-11T22:08:36.365Z,47.93
2018-11-11T22:11:06.543Z,48.07
2018-11-11T22:13:36.184Z,47.57
2018-11-11T22:16:06.007Z,42.62
2018-11-11T22:18:35.890Z,47.40
2018-11-11T22:21:05.532Z,48.30
2018-11-11T22:23:35.190Z,48.90
2018-11-11T22:26:05.235Z,46.17
2018-11-11T22:28:34.928Z,45.40
2018-11-11T22:31:04.659Z,41.57
2018-11-11T22:33:34.720Z,44.27
2018-11-11T22:36:04.310Z,45.07
2018-11-11T22:38:34.233Z,44.97
2018-11-11T22:41:03.916Z,41.80
2018-11-11T22:43:33.495Z,43.83
2018-11-11T22:46:03.025Z,38.20
2018-11-11T22:48:32.768Z,44.17
2018-11-11T22:51:02.311Z,42.63
2018-11-11T22:53:31.806Z,42.63
2018-11-11T22:56:01.472Z,41.43
2018-11-11T22:58:31.046Z,44.37
2018-11-11T23:01:31.169Z,43.63
2018-11-11T23:04:00.708Z,43.87
2018-11-11T23:06:30.301Z,42.53
2018-11-11T23:08:59.843Z,42.63
2018-11-11T23:11:29.524Z,45.20
2018-11-11T23:13:59.140Z,43.33
2018-11-11T23:16:28.665Z,42.87
2018-11-11T23:18:58.643Z,43.35
2018-11-11T23:21:28.127Z,42.87
2018-11-11T23:23:57.686Z,42.63
2018-11-11T23:26:27.299Z,41.57
2018-11-11T23:28:56.800Z,41.43
2018-11-11T23:31:26.496Z,42.70
2018-11-11T23:33:56.003Z,41.55
2018-11-11T23:36:25.512Z,44.80
2018-11-11T23:38:55.283Z,45.60
2018-11-11T23:41:24.998Z,41.43
2018-11-11T23:43:54.668Z,42.20
2018-11-11T23:46:24.339Z,39.53
2018-11-11T23:48:58.217Z,40.55
2018-11-11T23:51:28.292Z,41.60
2018-11-11T23:53:58.574Z,40.07
2018-11-11T23:56:28.756Z,39.70
2018-11-11T23:58:58.446Z,40.05
